Ana Sayfa
METAR-TAF:

METAR-TAF

Havaalanları :

Helsinki-Vantaa Havalimanı

Helsinki, Finlandiya

Enlem: 60-19N, Boylam: 024-58E, yükseklik: 51 m

Güncel hava durumu gözlemi

Rapor saat 18:50 UTC de 30 dakika önce yapıldı.
Rüzgar doğu/güneydoğudan 9 kt
Sıcaklık 16°C
Nem 77%
Basınç 1017 hPa
Görüş mesafesi 10 km veya daha fazla
2000 ft yükseklikte az bulutlu

METAR: EFHK 251850Z 12009KT 9999 FEW020 16/12 Q1017 NOSIG

Saat: 22:20 (19:20 UTC)

Tahmin

Rapor saat 17:25 UTC de 1 saat ve 55 dakika önce yapıldı.
Ayın 25'si saat 18 UTC'den ayın 26'si saat 18 UTC'ye kadar geçerli Tahmin
Rüzgar güneydan 6 kt
Görüş mesafesi 10 km veya daha fazla
3000 ft yükseklikte az bulutlu

TAF: EFHK 251725Z 2518/2618 17006KT 9999 FEW030

4.000'den fazla havaalanı için hava durumu gözlemleri ve tahminleri (METAR ve TAF raporları).

Kullanılabilir istasyonlar harita üzerinde sarı ve kırmızı noktalarla gösterilir.

İstasyonun adını görmek için fareyi noktanın üzerinde gezdirin.

Sonrasında hava gözlem ve tahminlerini görmek için tıklayın.

Haritayı değiştirmek için: yaklaştırmak için siyah artı işaretli yeşil düğmeye ve uzaklaştırmak için de eksi işaretli düğmeye hızla tıklayın; bitişik haritalar için yeşil okları kullanın.


METAR-TAF: